createdAt,value
2018-12-18T00:02:19.216Z,30.80
2018-12-18T00:04:47.023Z,32.03
2018-12-18T00:07:14.603Z,32.65
2018-12-18T00:09:42.219Z,32.60
2018-12-18T00:12:09.878Z,32.42
2018-12-18T00:14:39.219Z,36.42
2018-12-18T00:17:07.278Z,36.40
2018-12-18T00:19:35.050Z,33.67
2018-12-18T00:22:02.486Z,33.30
2018-12-18T00:24:30.125Z,33.00
2018-12-18T00:26:58.062Z,31.85
2018-12-18T00:29:26.396Z,32.67
2018-12-18T00:31:54.373Z,31.15
2018-12-18T00:34:25.160Z,31.82
2018-12-18T00:36:52.868Z,32.40
2018-12-18T00:39:21.322Z,32.00
2018-12-18T00:41:49.330Z,29.87
2018-12-18T00:44:16.710Z,31.50
2018-12-18T00:46:44.653Z,31.27
2018-12-18T00:49:13.044Z,32.28
2018-12-18T00:51:40.694Z,30.77
2018-12-18T00:54:08.115Z,29.67
2018-12-18T00:56:35.841Z,28.30
2018-12-18T00:59:04.135Z,26.55
2018-12-18T01:01:31.570Z,28.57
2018-12-18T01:03:59.525Z,28.50
2018-12-18T01:06:27.118Z,28.50
2018-12-18T01:08:55.380Z,27.48
2018-12-18T01:11:23.231Z,26.70
2018-12-18T01:13:51.119Z,26.23
2018-12-18T01:16:18.909Z,26.30
2018-12-18T01:18:46.750Z,26.70
2018-12-18T01:21:14.590Z,26.20
2018-12-18T01:23:42.262Z,26.60
2018-12-18T01:26:09.817Z,25.27
2018-12-18T01:28:37.485Z,26.17
2018-12-18T01:31:05.530Z,26.07
2018-12-18T01:33:33.017Z,26.33
2018-12-18T01:36:01.179Z,25.87
2018-12-18T01:38:29.147Z,25.70
2018-12-18T01:40:57.535Z,25.57
2018-12-18T01:43:25.643Z,25.08
2018-12-18T01:45:53.885Z,24.60
2018-12-18T01:48:21.553Z,23.97
2018-12-18T01:50:49.065Z,23.25
2018-12-18T01:53:17.007Z,23.55
2018-12-18T01:55:45.091Z,23.52
2018-12-18T01:58:12.802Z,23.73
2018-12-18T02:00:40.498Z,23.77
2018-12-18T02:03:08.646Z,23.60
2018-12-18T02:05:36.956Z,24.53
2018-12-18T02:08:05.219Z,24.98
2018-12-18T02:10:33.223Z,24.77
2018-12-18T02:13:00.625Z,24.80
2018-12-18T02:15:28.938Z,24.43
2018-12-18T02:17:56.973Z,26.30
2018-12-18T02:20:24.746Z,26.23
2018-12-18T02:22:52.363Z,27.30
2018-12-18T02:25:20.062Z,27.82
2018-12-18T02:27:48.263Z,28.45
2018-12-18T02:30:16.231Z,29.87
2018-12-18T02:32:43.782Z,28.80
2018-12-18T02:35:11.633Z,29.32
2018-12-18T02:37:39.547Z,28.97
2018-12-18T02:40:07.274Z,30.10
2018-12-18T02:42:35.433Z,30.00
2018-12-18T02:45:04.121Z,29.42
2018-12-18T02:47:32.650Z,30.30
2018-12-18T02:50:00.290Z,30.23
2018-12-18T02:52:28.009Z,30.52
2018-12-18T02:54:56.000Z,32.28
2018-12-18T02:57:24.461Z,33.28
2018-12-18T02:59:52.163Z,32.93
2018-12-18T03:02:19.778Z,32.80
2018-12-18T03:04:47.337Z,32.08
2018-12-18T03:07:15.493Z,32.85
2018-12-18T03:09:43.379Z,32.50
2018-12-18T03:12:11.657Z,32.98
2018-12-18T03:14:39.458Z,33.65
2018-12-18T03:17:07.232Z,34.00
2018-12-18T03:19:34.883Z,33.60
2018-12-18T03:22:02.382Z,34.88
2018-12-18T03:24:30.442Z,34.87
2018-12-18T03:26:58.416Z,33.60
2018-12-18T03:29:26.240Z,34.70
2018-12-18T03:31:58.208Z,35.98
2018-12-18T03:34:28.466Z,36.20
2018-12-18T03:36:56.402Z,37.05
2018-12-18T03:39:23.816Z,37.07
2018-12-18T03:41:51.637Z,38.02
2018-12-18T03:44:19.598Z,36.90
2018-12-18T03:46:47.361Z,36.30
2018-12-18T03:49:15.194Z,35.40
2018-12-18T03:51:43.207Z,35.20
2018-12-18T03:54:10.811Z,36.10
2018-12-18T03:56:38.523Z,34.60
2018-12-18T03:59:06.512Z,33.38
2018-12-18T04:01:34.691Z,32.90
2018-12-18T04:04:02.341Z,35.15
2018-12-18T04:06:30.397Z,33.37
2018-12-18T04:08:57.885Z,32.83
2018-12-18T04:11:25.823Z,33.05
2018-12-18T04:13:53.906Z,33.18
2018-12-18T04:16:21.358Z,31.62
2018-12-18T04:18:49.177Z,32.03
2018-12-18T04:21:17.220Z,33.48
2018-12-18T04:23:44.618Z,32.75
2018-12-18T04:26:12.539Z,35.00
2018-12-18T04:28:40.506Z,33.67
2018-12-18T04:31:08.562Z,34.78
2018-12-18T04:33:36.623Z,38.02
2018-12-18T04:36:04.395Z,32.60
2018-12-18T04:38:32.274Z,33.90
2018-12-18T04:41:00.310Z,32.60
2018-12-18T04:43:28.008Z,32.65
2018-12-18T04:45:55.973Z,31.70
2018-12-18T04:48:23.847Z,32.35
2018-12-18T04:50:51.498Z,32.80
2018-12-18T04:53:20.461Z,34.60
2018-12-18T04:55:48.078Z,33.70
2018-12-18T04:58:16.397Z,34.73
2018-12-18T05:00:44.205Z,33.70
2018-12-18T05:03:12.171Z,33.33
2018-12-18T05:05:39.570Z,35.43
2018-12-18T05:08:07.192Z,34.40
2018-12-18T05:10:35.370Z,33.40
2018-12-18T05:13:03.557Z,34.70
2018-12-18T05:15:31.114Z,32.45
2018-12-18T05:17:59.521Z,34.90
2018-12-18T05:20:27.659Z,35.03
2018-12-18T05:22:55.734Z,35.30
2018-12-18T05:25:23.934Z,35.90
2018-12-18T05:27:52.503Z,34.78
2018-12-18T05:30:20.350Z,35.52
2018-12-18T05:32:48.332Z,36.10
2018-12-18T05:35:15.927Z,36.23
2018-12-18T05:37:44.319Z,36.90
2018-12-18T05:40:13.018Z,36.33
2018-12-18T05:42:40.751Z,36.73
2018-12-18T05:45:08.786Z,37.08
2018-12-18T05:47:36.309Z,37.23
2018-12-18T05:50:04.178Z,36.17
2018-12-18T05:52:32.389Z,37.23
2018-12-18T05:55:00.075Z,37.55
2018-12-18T05:57:27.482Z,37.30
2018-12-18T06:01:00.305Z,37.98
2018-12-18T06:03:28.065Z,36.48
2018-12-18T06:05:55.931Z,36.70
2018-12-18T06:08:23.409Z,37.00
2018-12-18T06:10:51.139Z,37.80
2018-12-18T06:13:18.646Z,37.80
2018-12-18T06:15:47.403Z,37.83
2018-12-18T06:18:15.276Z,39.20
2018-12-18T06:20:42.946Z,37.27
2018-12-18T06:23:10.451Z,37.45
2018-12-18T06:25:38.150Z,38.28
2018-12-18T06:28:06.226Z,37.85
2018-12-18T06:30:34.257Z,38.03
2018-12-18T06:33:02.592Z,36.93
2018-12-18T06:35:30.887Z,38.55
2018-12-18T06:37:58.402Z,38.50
2018-12-18T06:40:26.740Z,38.48
2018-12-18T06:42:55.532Z,38.40
2018-12-18T06:45:23.234Z,38.00
2018-12-18T06:47:50.714Z,39.30
2018-12-18T06:50:19.313Z,39.15
2018-12-18T06:52:47.036Z,39.05
2018-12-18T06:55:14.987Z,38.78
2018-12-18T06:57:43.301Z,39.92
2018-12-18T07:00:11.666Z,40.12
2018-12-18T07:02:39.477Z,38.85
2018-12-18T07:05:07.087Z,40.35
2018-12-18T07:07:34.484Z,40.17
2018-12-18T07:10:02.794Z,38.67
2018-12-18T07:12:30.710Z,38.28
2018-12-18T07:14:59.058Z,39.08
2018-12-18T07:17:26.738Z,40.08
2018-12-18T07:19:55.104Z,40.60
2018-12-18T07:22:22.852Z,37.75
2018-12-18T07:24:50.703Z,37.10
2018-12-18T07:27:18.314Z,38.63
2018-12-18T07:29:45.849Z,37.67
2018-12-18T07:32:13.749Z,37.73
2018-12-18T07:34:42.657Z,36.68
2018-12-18T07:37:10.568Z,37.85
2018-12-18T07:39:38.926Z,37.13
2018-12-18T07:42:06.555Z,37.00
2018-12-18T07:44:34.814Z,37.40
2018-12-18T07:47:02.446Z,37.05
2018-12-18T07:49:30.354Z,38.48
2018-12-18T07:51:58.726Z,36.25
2018-12-18T07:54:28.243Z,38.20
2018-12-18T07:56:56.206Z,37.33
2018-12-18T07:59:23.879Z,37.75
2018-12-18T08:01:51.402Z,39.08
2018-12-18T08:04:21.112Z,37.70
2018-12-18T08:06:48.941Z,38.45
2018-12-18T08:09:17.807Z,39.08
2018-12-18T08:11:45.774Z,37.73
2018-12-18T08:14:13.274Z,37.47
2018-12-18T08:16:40.698Z,36.23
2018-12-18T08:19:08.155Z,38.00
2018-12-18T08:21:35.632Z,38.20
2018-12-18T08:24:03.407Z,36.95
2018-12-18T08:26:31.074Z,36.53
2018-12-18T08:28:58.820Z,38.05
2018-12-18T08:31:26.254Z,37.87
2018-12-18T08:33:53.982Z,37.35
2018-12-18T08:36:21.490Z,36.30
2018-12-18T08:38:48.986Z,34.83
2018-12-18T08:41:16.527Z,34.08
2018-12-18T08:43:44.270Z,35.05
2018-12-18T08:46:12.108Z,33.55
2018-12-18T08:48:40.028Z,33.02
2018-12-18T08:51:07.750Z,32.80
2018-12-18T08:53:35.928Z,28.95
2018-12-18T08:56:04.254Z,30.10
2018-12-18T08:58:32.067Z,28.77
2018-12-18T09:00:59.836Z,28.87
2018-12-18T09:03:27.457Z,28.65
2018-12-18T09:05:55.131Z,28.40
2018-12-18T09:08:22.581Z,29.25
2018-12-18T09:10:50.374Z,29.37
2018-12-18T09:13:18.239Z,29.35
2018-12-18T09:15:51.530Z,29.23
2018-12-18T09:18:19.201Z,28.52
2018-12-18T09:20:46.790Z,29.63
2018-12-18T09:23:14.497Z,29.25
2018-12-18T09:25:42.403Z,27.85
2018-12-18T09:28:10.016Z,30.75
2018-12-18T09:30:42.549Z,32.48
2018-12-18T09:33:08.214Z,30.92
2018-12-18T09:35:36.611Z,29.45
2018-12-18T09:38:09.989Z,29.07
2018-12-18T09:40:43.387Z,29.05
2018-12-18T09:43:17.315Z,28.70
2018-12-18T09:45:44.882Z,28.15
2018-12-18T09:48:12.349Z,28.38
2018-12-18T09:50:39.939Z,28.40
2018-12-18T09:53:07.778Z,29.10
2018-12-18T09:55:36.120Z,28.05
2018-12-18T09:58:06.380Z,29.63
2018-12-18T10:00:34.398Z,29.32
2018-12-18T10:03:01.877Z,28.67
2018-12-18T10:05:30.379Z,27.10
2018-12-18T10:07:58.865Z,27.90
2018-12-18T10:10:27.799Z,27.77
2018-12-18T10:12:56.566Z,31.30
2018-12-18T10:15:24.647Z,27.00
2018-12-18T10:17:52.498Z,26.37
2018-12-18T10:20:20.713Z,26.80
2018-12-18T10:22:48.240Z,26.80
2018-12-18T10:25:15.987Z,26.52
2018-12-18T10:27:43.593Z,26.00
2018-12-18T10:30:11.527Z,25.20
2018-12-18T10:32:39.573Z,25.92
2018-12-18T10:35:07.131Z,25.23
2018-12-18T10:37:35.126Z,24.77
2018-12-18T10:40:02.742Z,24.30
2018-12-18T10:42:30.555Z,24.10
2018-12-18T10:44:58.929Z,23.50
2018-12-18T10:47:27.312Z,25.02
2018-12-18T10:49:54.996Z,26.35
2018-12-18T10:52:23.146Z,24.20
2018-12-18T10:54:52.474Z,24.43
2018-12-18T10:57:20.784Z,23.75
2018-12-18T10:59:48.406Z,24.15
2018-12-18T11:02:16.525Z,23.73
2018-12-18T11:04:44.111Z,24.35
2018-12-18T11:07:11.710Z,23.20
2018-12-18T11:09:39.989Z,24.15
2018-12-18T11:12:08.185Z,23.57
2018-12-18T11:14:35.622Z,23.42
2018-12-18T11:17:03.523Z,23.45
2018-12-18T11:19:31.185Z,24.30
2018-12-18T11:21:59.051Z,24.70
2018-12-18T11:24:27.183Z,24.27
2018-12-18T11:26:54.712Z,24.95
2018-12-18T11:29:22.730Z,24.67
2018-12-18T11:31:50.668Z,25.75
2018-12-18T11:34:19.051Z,25.85
2018-12-18T11:36:46.501Z,26.40
2018-12-18T11:39:14.772Z,26.05
2018-12-18T11:41:42.963Z,26.77
2018-12-18T11:44:10.920Z,25.77
2018-12-18T11:46:38.507Z,25.72
2018-12-18T11:49:06.138Z,25.23
2018-12-18T11:51:33.911Z,25.90
2018-12-18T11:54:01.967Z,24.90
2018-12-18T11:56:29.401Z,23.47
2018-12-18T11:58:56.806Z,25.10
2018-12-18T12:01:24.786Z,25.23
2018-12-18T12:03:52.736Z,24.63
2018-12-18T12:06:23.217Z,24.25
2018-12-18T12:08:50.618Z,24.75
2018-12-18T12:11:18.783Z,24.15
2018-12-18T12:13:46.817Z,23.83
2018-12-18T12:16:14.462Z,24.00
2018-12-18T12:18:42.063Z,23.70
2018-12-18T12:21:09.521Z,24.27
2018-12-18T12:23:37.113Z,23.98
2018-12-18T12:26:09.998Z,23.67
2018-12-18T12:28:37.484Z,23.52
2018-12-18T12:31:05.004Z,24.10
2018-12-18T12:33:32.734Z,23.67
2018-12-18T12:36:00.411Z,23.92
2018-12-18T12:38:28.067Z,24.60
2018-12-18T12:40:56.065Z,23.90
2018-12-18T12:43:23.669Z,24.90
2018-12-18T12:45:51.098Z,25.15
2018-12-18T12:48:19.466Z,26.10
2018-12-18T12:50:47.191Z,25.97
2018-12-18T12:53:14.845Z,26.17
2018-12-18T12:55:43.060Z,26.80
2018-12-18T12:58:10.777Z,27.75
2018-12-18T13:00:39.416Z,28.10
2018-12-18T13:03:07.077Z,27.63
2018-12-18T13:05:36.020Z,27.58
2018-12-18T13:08:03.728Z,27.55
2018-12-18T13:10:31.329Z,27.87
2018-12-18T13:12:58.880Z,28.42
2018-12-18T13:15:26.716Z,28.50
2018-12-18T13:17:54.888Z,30.17
2018-12-18T13:20:22.653Z,29.30
2018-12-18T13:22:50.112Z,29.37
2018-12-18T13:25:17.989Z,29.12
2018-12-18T13:27:45.774Z,29.48
2018-12-18T13:30:13.933Z,29.15
2018-12-18T13:32:41.604Z,29.20
2018-12-18T13:35:08.984Z,29.90
2018-12-18T13:37:36.999Z,30.25
2018-12-18T13:40:05.055Z,30.77
2018-12-18T13:42:32.675Z,58.33
2018-12-18T13:45:00.677Z,30.90
2018-12-18T13:47:28.281Z,31.90
2018-12-18T13:49:55.978Z,32.67
2018-12-18T13:52:23.627Z,31.80
2018-12-18T13:54:51.155Z,30.80
2018-12-18T13:57:19.149Z,32.03
2018-12-18T13:59:47.481Z,32.05
2018-12-18T14:02:14.999Z,31.65
2018-12-18T14:04:42.844Z,30.55
2018-12-18T14:07:10.857Z,30.90
2018-12-18T14:09:38.543Z,32.58
2018-12-18T14:12:06.219Z,32.80
2018-12-18T14:14:34.305Z,33.50
2018-12-18T14:17:02.465Z,34.80
2018-12-18T14:19:30.154Z,35.43
2018-12-18T14:21:58.387Z,33.75
2018-12-18T14:24:28.983Z,33.10
2018-12-18T14:27:04.520Z,32.90
2018-12-18T14:29:39.292Z,31.95
2018-12-18T14:32:12.806Z,31.23
2018-12-18T14:34:48.513Z,30.90
2018-12-18T14:37:26.069Z,30.90
2018-12-18T14:39:57.289Z,31.37
2018-12-18T14:42:31.427Z,32.20
2018-12-18T14:45:05.946Z,32.10
2018-12-18T14:47:41.760Z,31.37
2018-12-18T14:50:15.751Z,30.02
2018-12-18T14:52:51.561Z,30.10
2018-12-18T14:55:25.750Z,29.18
2018-12-18T14:58:00.318Z,28.95
2018-12-18T15:00:34.782Z,28.60
2018-12-18T15:03:14.234Z,30.17
2018-12-18T15:05:48.912Z,29.05
2018-12-18T15:08:25.915Z,27.82
2018-12-18T15:11:03.202Z,26.30
2018-12-18T15:13:42.674Z,27.05
2018-12-18T15:16:17.099Z,25.50
2018-12-18T15:18:53.088Z,26.30
2018-12-18T15:21:26.210Z,24.90
2018-12-18T15:23:59.618Z,25.40
2018-12-18T15:26:32.800Z,25.40
2018-12-18T15:29:13.399Z,25.50
2018-12-18T15:31:47.489Z,24.87
2018-12-18T15:34:24.209Z,24.50
2018-12-18T15:36:55.524Z,24.10
2018-12-18T15:39:30.634Z,23.85
2018-12-18T15:42:03.392Z,23.30
2018-12-18T15:44:37.997Z,23.35
2018-12-18T15:47:12.974Z,22.80
2018-12-18T15:49:44.273Z,22.87
2018-12-18T15:52:26.740Z,21.15
2018-12-18T15:55:05.834Z,20.82
2018-12-18T15:57:40.586Z,21.93
2018-12-18T16:00:13.703Z,21.70
2018-12-18T16:02:45.970Z,22.40
2018-12-18T16:05:21.877Z,21.80
2018-12-18T16:07:59.209Z,21.87
2018-12-18T16:10:34.611Z,20.77
2018-12-18T16:13:10.237Z,20.65
2018-12-18T16:15:38.344Z,21.40
2018-12-18T16:18:05.899Z,22.15
2018-12-18T16:20:34.356Z,22.10
2018-12-18T16:23:02.067Z,22.10
2018-12-18T16:25:29.888Z,21.85
2018-12-18T16:27:57.879Z,21.73
2018-12-18T16:30:25.539Z,22.32
2018-12-18T16:32:53.020Z,21.73
2018-12-18T16:35:20.525Z,21.15
2018-12-18T16:37:47.958Z,21.73
2018-12-18T16:40:16.294Z,21.87
2018-12-18T16:42:44.363Z,22.17
2018-12-18T16:45:12.335Z,20.97
2018-12-18T16:47:39.891Z,21.80
2018-12-18T16:50:07.462Z,21.57
2018-12-18T16:52:35.536Z,22.53
2018-12-18T16:55:03.257Z,21.57
2018-12-18T16:57:30.761Z,22.07
2018-12-18T16:59:59.044Z,21.50
2018-12-18T17:02:26.996Z,21.40
2018-12-18T17:04:54.487Z,21.27
2018-12-18T17:07:21.988Z,21.90
2018-12-18T17:09:49.844Z,21.97
2018-12-18T17:12:17.643Z,21.00
2018-12-18T17:14:45.169Z,21.05
2018-12-18T17:17:12.850Z,20.60
2018-12-18T17:19:41.744Z,20.40
2018-12-18T17:22:09.139Z,20.48
2018-12-18T17:24:36.757Z,20.15
2018-12-18T17:27:04.279Z,20.10
2018-12-18T17:29:32.668Z,20.25
2018-12-18T17:32:01.301Z,19.00
2018-12-18T17:34:29.132Z,19.20
2018-12-18T17:36:56.656Z,19.65
2018-12-18T17:39:24.452Z,19.50
2018-12-18T17:41:52.256Z,19.90
2018-12-18T17:44:20.123Z,20.55
2018-12-18T17:46:47.772Z,20.00
2018-12-18T17:49:15.179Z,19.92
2018-12-18T17:51:42.580Z,19.87
2018-12-18T17:54:10.286Z,21.30
2018-12-18T17:56:38.544Z,21.00
2018-12-18T17:59:06.117Z,21.33
2018-12-18T18:01:33.849Z,21.55
2018-12-18T18:04:01.453Z,21.35
2018-12-18T18:06:29.049Z,21.60
2018-12-18T18:08:56.572Z,21.90
2018-12-18T18:11:24.422Z,22.07
2018-12-18T18:13:51.996Z,21.68
2018-12-18T18:16:19.927Z,21.80
2018-12-18T18:18:47.464Z,23.20
2018-12-18T18:21:15.471Z,22.00
2018-12-18T18:23:43.359Z,21.17
2018-12-18T18:26:12.349Z,21.40
2018-12-18T18:28:40.735Z,20.50
2018-12-18T18:31:08.192Z,20.60
2018-12-18T18:33:35.944Z,20.75
2018-12-18T18:36:04.465Z,20.95
2018-12-18T18:38:32.076Z,21.70
2018-12-18T18:41:00.567Z,20.25
2018-12-18T18:43:28.155Z,21.60
2018-12-18T18:45:56.264Z,21.68
2018-12-18T18:48:23.729Z,21.55
2018-12-18T18:50:51.180Z,22.58
2018-12-18T18:53:19.185Z,21.27
2018-12-18T18:55:46.903Z,22.10
2018-12-18T18:58:14.595Z,22.02
2018-12-18T19:00:42.108Z,23.20
2018-12-18T19:03:09.888Z,30.52
2018-12-18T19:05:37.353Z,21.33
2018-12-18T19:08:04.905Z,22.07
2018-12-18T19:10:32.468Z,21.17
2018-12-18T19:13:00.004Z,21.52
2018-12-18T19:15:27.624Z,21.20
2018-12-18T19:17:55.401Z,21.83
2018-12-18T19:20:23.266Z,21.45
2018-12-18T19:22:50.679Z,22.32
2018-12-18T19:25:18.421Z,20.47
2018-12-18T19:27:46.111Z,21.12
2018-12-18T19:30:13.868Z,21.90
2018-12-18T19:32:41.512Z,21.02
2018-12-18T19:35:08.967Z,21.23
2018-12-18T19:37:36.791Z,21.95
2018-12-18T19:40:04.571Z,20.48
2018-12-18T19:42:32.220Z,21.57
2018-12-18T19:44:59.648Z,20.40
2018-12-18T19:47:27.109Z,21.65
2018-12-18T19:49:54.593Z,20.97
2018-12-18T19:52:22.015Z,20.68
2018-12-18T19:54:49.462Z,21.20
2018-12-18T19:57:17.188Z,20.92
2018-12-18T19:59:44.629Z,21.55
2018-12-18T20:02:12.015Z,22.00
2018-12-18T20:04:39.756Z,20.75
2018-12-18T20:07:07.323Z,21.27
2018-12-18T20:09:35.312Z,21.82
2018-12-18T20:12:03.054Z,21.10
2018-12-18T20:14:30.790Z,20.95
2018-12-18T20:16:58.829Z,21.40
2018-12-18T20:19:27.480Z,21.40
2018-12-18T20:21:55.050Z,21.30
2018-12-18T20:24:22.967Z,20.72
2018-12-18T20:26:50.656Z,20.25
2018-12-18T20:29:18.538Z,21.00
2018-12-18T20:31:46.017Z,21.20
2018-12-18T20:34:13.741Z,20.60
2018-12-18T20:36:41.187Z,21.30
2018-12-18T20:39:09.362Z,21.12
2018-12-18T20:41:37.363Z,21.17
2018-12-18T20:44:05.320Z,21.95
2018-12-18T20:46:34.492Z,21.48
2018-12-18T20:49:02.322Z,20.90
2018-12-18T20:51:30.369Z,21.48
2018-12-18T20:53:58.463Z,21.05
2018-12-18T20:56:26.266Z,20.47
2018-12-18T20:58:54.585Z,21.48
2018-12-18T21:01:23.194Z,21.27
2018-12-18T21:03:51.140Z,20.70
2018-12-18T21:06:19.002Z,23.10
2018-12-18T21:08:46.757Z,21.45
2018-12-18T21:11:14.531Z,22.35
2018-12-18T21:13:42.437Z,21.90
2018-12-18T21:16:10.469Z,21.03
2018-12-18T21:18:38.515Z,22.80
2018-12-18T21:21:06.410Z,23.05
2018-12-18T21:23:34.743Z,21.50
2018-12-18T21:26:02.927Z,22.20
2018-12-18T21:28:31.440Z,22.85
2018-12-18T21:30:58.982Z,22.10
2018-12-18T21:33:26.378Z,24.18
2018-12-18T21:35:54.791Z,22.50
2018-12-18T21:38:30.037Z,21.57
2018-12-18T21:40:53.602Z,23.62
2018-12-18T21:43:21.662Z,22.50
2018-12-18T21:45:49.618Z,21.30
2018-12-18T21:48:17.165Z,22.42
2018-12-18T21:50:45.047Z,22.27
2018-12-18T21:53:12.597Z,21.62
2018-12-18T21:55:40.437Z,21.35
2018-12-18T21:58:09.674Z,21.90
2018-12-18T22:00:37.412Z,22.32
2018-12-18T22:03:06.874Z,22.00
2018-12-18T22:05:34.890Z,21.62
2018-12-18T22:08:03.114Z,21.50
2018-12-18T22:10:31.549Z,21.73
2018-12-18T22:12:59.831Z,22.65
2018-12-18T22:15:27.553Z,20.77
2018-12-18T22:17:55.921Z,21.30
2018-12-18T22:20:24.069Z,21.60
2018-12-18T22:22:51.925Z,22.20
2018-12-18T22:25:19.551Z,21.62
2018-12-18T22:27:48.084Z,21.30
2018-12-18T22:30:15.579Z,21.70
2018-12-18T22:32:43.329Z,21.10
2018-12-18T22:35:11.028Z,20.60
2018-12-18T22:37:38.780Z,21.07
2018-12-18T22:40:06.213Z,20.52
2018-12-18T22:42:34.120Z,21.57
2018-12-18T22:45:01.520Z,21.50
2018-12-18T22:47:29.003Z,21.07
2018-12-18T22:49:56.476Z,20.70
2018-12-18T22:52:24.459Z,20.80
2018-12-18T22:54:52.118Z,19.98
2018-12-18T22:57:20.672Z,19.35
2018-12-18T22:59:49.651Z,19.92
2018-12-18T23:02:18.293Z,20.15
2018-12-18T23:04:46.248Z,19.27
2018-12-18T23:07:14.126Z,19.40
2018-12-18T23:09:42.294Z,18.80
2018-12-18T23:12:10.067Z,19.00
2018-12-18T23:14:38.447Z,19.90
2018-12-18T23:17:06.090Z,18.77
2018-12-18T23:19:33.970Z,19.17
2018-12-18T23:22:02.119Z,18.82
2018-12-18T23:24:29.873Z,20.17
2018-12-18T23:26:58.002Z,19.17
2018-12-18T23:29:25.819Z,18.80
2018-12-18T23:31:53.519Z,18.90
2018-12-18T23:34:21.515Z,19.32
2018-12-18T23:36:49.587Z,19.80
2018-12-18T23:39:17.294Z,20.43
2018-12-18T23:41:45.463Z,20.90
2018-12-18T23:44:13.885Z,20.52
2018-12-18T23:46:41.474Z,19.42
2018-12-18T23:49:09.924Z,20.40
2018-12-18T23:51:37.640Z,20.20
2018-12-18T23:54:05.723Z,19.77
2018-12-18T23:56:33.299Z,20.05
2018-12-18T23:59:01.030Z,20.30
